createdAt,value
2024-01-05T00:00:37.952Z,8.87
2024-01-05T00:01:37.830Z,8.88
2024-01-05T00:02:37.824Z,8.88
2024-01-05T00:03:37.868Z,8.87
2024-01-05T00:04:37.855Z,8.87
2024-01-05T00:05:37.798Z,8.86
2024-01-05T00:06:37.946Z,8.87
2024-01-05T00:07:37.769Z,8.87
2024-01-05T00:08:37.739Z,8.87
2024-01-05T00:09:37.794Z,8.88
2024-01-05T00:10:37.741Z,8.87
2024-01-05T00:11:37.706Z,8.87
2024-01-05T00:12:37.724Z,8.88
2024-01-05T00:13:37.675Z,8.88
2024-01-05T00:14:37.666Z,8.87
2024-01-05T00:15:37.720Z,8.87
2024-01-05T00:16:37.653Z,8.87
2024-01-05T00:17:37.627Z,8.86
2024-01-05T00:18:37.736Z,8.87
2024-01-05T00:19:37.785Z,8.87
2024-01-05T00:20:37.584Z,8.87
2024-01-05T00:21:37.620Z,8.87
2024-01-05T00:22:37.573Z,8.87
2024-01-05T00:23:37.548Z,8.88
2024-01-05T00:24:37.600Z,8.86
2024-01-05T00:25:37.530Z,8.87
2024-01-05T00:26:37.530Z,8.87
2024-01-05T00:27:37.538Z,8.87
2024-01-05T00:28:37.488Z,8.87
2024-01-05T00:29:37.471Z,8.87
2024-01-05T00:30:37.574Z,8.87
2024-01-05T00:31:37.516Z,8.86
2024-01-05T00:32:37.454Z,8.84
2024-01-05T00:33:37.485Z,8.86
2024-01-05T00:34:37.508Z,8.86
2024-01-05T00:35:37.404Z,8.86
2024-01-05T00:36:37.447Z,8.87
2024-01-05T00:37:37.372Z,8.86
2024-01-05T00:38:37.358Z,8.86
2024-01-05T00:39:37.358Z,8.87
2024-01-05T00:40:37.331Z,8.87
2024-01-05T00:41:37.317Z,8.87
2024-01-05T00:42:37.389Z,8.84
2024-01-05T00:43:37.289Z,8.84
2024-01-05T00:44:37.275Z,8.84
2024-01-05T00:45:37.381Z,8.84
2024-01-05T00:46:37.259Z,8.86
2024-01-05T00:47:37.294Z,8.86
2024-01-05T00:48:37.481Z,8.86
2024-01-05T00:49:37.399Z,8.86
2024-01-05T00:50:37.201Z,8.87
2024-01-05T00:51:37.224Z,8.86
2024-01-05T00:52:37.175Z,8.84
2024-01-05T00:53:37.163Z,8.84
2024-01-05T00:54:37.220Z,8.84
2024-01-05T00:55:37.138Z,8.86
2024-01-05T00:56:37.151Z,8.86
2024-01-05T00:59:04.193Z,8.87
2024-01-05T01:00:04.216Z,8.86
2024-01-05T01:01:04.212Z,8.84
2024-01-05T01:02:04.119Z,8.84
2024-01-05T01:03:04.382Z,8.84
2024-01-05T01:04:04.235Z,8.84
2024-01-05T01:05:04.130Z,8.86
2024-01-05T01:06:04.096Z,8.84
2024-01-05T01:07:04.053Z,8.84
2024-01-05T01:08:04.037Z,8.84
2024-01-05T01:09:04.066Z,8.84
2024-01-05T01:10:04.021Z,8.86
2024-01-05T01:11:04.005Z,8.86
2024-01-05T01:12:04.064Z,8.84
2024-01-05T01:13:03.977Z,8.86
2024-01-05T01:14:03.955Z,8.84
2024-01-05T01:15:04.029Z,8.84
2024-01-05T01:16:03.928Z,8.84
2024-01-05T01:17:03.918Z,8.86
2024-01-05T01:18:04.149Z,8.84
2024-01-05T01:19:04.170Z,8.84
2024-01-05T01:20:03.884Z,8.84
2024-01-05T01:21:03.931Z,8.84
2024-01-05T01:22:03.865Z,8.86
2024-01-05T01:23:03.866Z,8.86
2024-01-05T01:24:03.916Z,8.86
2024-01-05T01:25:03.835Z,8.86
2024-01-05T01:26:03.850Z,8.87
2024-01-05T01:27:56.888Z,8.86
2024-01-05T01:28:56.871Z,8.86
2024-01-05T01:31:42.133Z,8.86
2024-01-05T01:32:42.126Z,8.84
2024-01-05T01:33:42.216Z,8.83
2024-01-05T01:34:42.069Z,8.84
2024-01-05T01:35:42.013Z,8.86
2024-01-05T01:36:42.346Z,8.84
2024-01-05T01:37:41.995Z,8.86
2024-01-05T01:38:41.976Z,8.84
2024-01-05T01:39:41.970Z,8.84
2024-01-05T01:40:41.953Z,8.83
2024-01-05T01:41:41.948Z,8.84
2024-01-05T01:42:42.055Z,8.84
2024-01-05T01:43:41.912Z,8.83
2024-01-05T01:44:41.897Z,8.84
2024-01-05T01:45:41.934Z,8.83
2024-01-05T01:46:42.052Z,8.84
2024-01-05T01:47:41.980Z,8.83
2024-01-05T01:48:42.043Z,8.83
2024-01-05T01:49:41.965Z,8.84
2024-01-05T01:50:41.825Z,8.84
2024-01-05T01:53:33.027Z,8.87
2024-01-05T01:54:33.231Z,8.84
2024-01-05T01:55:30.934Z,8.84
2024-01-05T01:56:30.920Z,8.84
2024-01-05T01:57:31.020Z,8.84
2024-01-05T01:58:30.904Z,8.84
2024-01-05T01:59:30.908Z,8.83
2024-01-05T02:00:30.977Z,8.84
2024-01-05T02:01:30.854Z,8.83
2024-01-05T02:02:30.845Z,8.84
2024-01-05T02:03:30.975Z,8.86
2024-01-05T02:04:30.885Z,8.84
2024-01-05T02:05:30.857Z,8.86
2024-01-05T02:06:30.818Z,8.84
2024-01-05T02:07:30.782Z,8.84
2024-01-05T02:08:30.767Z,8.83
2024-01-05T02:09:30.820Z,8.86
2024-01-05T02:10:30.739Z,8.84
2024-01-05T02:11:30.724Z,8.86
2024-01-05T02:12:30.736Z,8.84
2024-01-05T02:13:30.694Z,8.84
2024-01-05T02:14:30.680Z,8.84
2024-01-05T02:15:30.699Z,8.83
2024-01-05T02:16:30.659Z,8.84
2024-01-05T02:17:30.707Z,8.83
2024-01-05T02:18:30.757Z,8.84
2024-01-05T02:19:30.796Z,8.84
2024-01-05T02:20:30.605Z,8.84
2024-01-05T02:21:30.665Z,8.83
2024-01-05T02:22:30.572Z,8.84
2024-01-05T02:23:30.568Z,8.83
2024-01-05T02:24:30.628Z,8.84
2024-01-05T02:25:30.539Z,8.83
2024-01-05T02:26:30.545Z,8.83
2024-01-05T02:27:30.560Z,8.83
2024-01-05T02:28:30.503Z,8.84
2024-01-05T02:29:30.491Z,8.84
2024-01-05T02:30:30.560Z,8.83
2024-01-05T02:31:30.513Z,8.83
2024-01-05T02:32:31.329Z,8.84
2024-01-05T02:33:30.531Z,8.83
2024-01-05T02:34:30.520Z,8.84
2024-01-05T02:35:30.438Z,8.83
2024-01-05T02:36:30.430Z,8.84
2024-01-05T02:37:30.444Z,8.84
2024-01-05T02:38:30.395Z,8.81
2024-01-05T02:39:30.417Z,8.83
2024-01-05T02:40:30.346Z,8.83
2024-01-05T02:41:30.359Z,8.83
2024-01-05T02:42:30.431Z,8.83
2024-01-05T02:43:30.305Z,8.83
2024-01-05T02:44:30.296Z,8.84
2024-01-05T02:45:30.301Z,8.83
2024-01-05T02:46:30.276Z,8.83
2024-01-05T02:47:30.265Z,8.83
2024-01-05T02:48:30.370Z,8.83
2024-01-05T02:49:31.840Z,8.83
2024-01-05T02:50:30.212Z,8.84
2024-01-05T02:51:30.252Z,8.81
2024-01-05T02:52:30.189Z,8.83
2024-01-05T02:53:30.235Z,8.84
2024-01-05T02:54:30.196Z,8.86
2024-01-05T02:55:30.166Z,8.83
2024-01-05T02:56:30.134Z,8.83
2024-01-05T02:57:30.134Z,8.84
2024-01-05T02:58:30.120Z,8.83
2024-01-05T02:59:30.097Z,8.86
2024-01-05T03:00:30.224Z,8.83
2024-01-05T03:01:30.123Z,8.84
2024-01-05T03:02:30.057Z,8.83
2024-01-05T03:03:30.166Z,8.83
2024-01-05T03:04:30.070Z,8.81
2024-01-05T03:05:30.070Z,8.83
2024-01-05T03:06:30.107Z,8.83
2024-01-05T03:07:30.019Z,8.83
2024-01-05T03:08:29.979Z,8.81
2024-01-05T03:09:30.075Z,8.81
2024-01-05T03:10:29.951Z,8.83
2024-01-05T03:11:29.938Z,8.83
2024-01-05T03:12:30.006Z,8.81
2024-01-05T03:13:29.919Z,8.83
2024-01-05T03:14:29.899Z,8.83
2024-01-05T03:15:29.926Z,8.83
2024-01-05T03:16:29.873Z,8.83
2024-01-05T03:17:29.892Z,8.81
2024-01-05T03:18:29.984Z,8.83
2024-01-05T03:19:30.004Z,8.83
2024-01-05T03:20:29.826Z,8.81
2024-01-05T03:21:29.849Z,8.84
2024-01-05T03:22:32.155Z,8.84
2024-01-05T03:23:29.815Z,8.84
2024-01-05T03:24:29.819Z,8.83
2024-01-05T03:25:29.751Z,8.83
2024-01-05T03:26:29.740Z,8.83
2024-01-05T03:27:29.736Z,8.84
2024-01-05T03:28:29.718Z,8.83
2024-01-05T03:29:29.715Z,8.83
2024-01-05T03:30:29.749Z,8.84
2024-01-05T03:31:29.695Z,8.83
2024-01-05T03:32:29.712Z,8.83
2024-01-05T03:33:29.808Z,8.84
2024-01-05T03:34:29.700Z,8.83
2024-01-05T03:35:29.622Z,8.83
2024-01-05T03:36:29.684Z,8.83
2024-01-05T03:37:29.594Z,8.83
2024-01-05T03:38:29.584Z,8.83
2024-01-05T03:39:29.667Z,8.83
2024-01-05T03:40:29.557Z,8.83
2024-01-05T03:41:29.551Z,8.84
2024-01-05T03:42:29.555Z,8.83
2024-01-05T03:43:29.516Z,8.83
2024-01-05T03:44:29.505Z,8.84
2024-01-05T03:45:29.517Z,8.83
2024-01-05T03:46:29.478Z,8.83
2024-01-05T03:47:29.486Z,8.83
2024-01-05T03:48:29.538Z,8.84
2024-01-05T03:49:29.563Z,8.84
2024-01-05T03:50:29.429Z,8.83
2024-01-05T03:51:29.507Z,8.84
2024-01-05T03:52:29.419Z,8.84
2024-01-05T03:53:29.404Z,8.84
2024-01-05T03:54:29.442Z,8.83
2024-01-05T03:55:29.389Z,8.84
2024-01-05T03:56:29.358Z,8.86
2024-01-05T03:57:29.408Z,8.84
2024-01-05T03:58:29.377Z,8.83
2024-01-05T03:59:29.310Z,8.84
2024-01-05T04:00:29.346Z,8.83
2024-01-05T04:01:29.328Z,8.83
2024-01-05T04:02:29.403Z,8.83
2024-01-05T04:03:29.382Z,8.84
2024-01-05T04:04:29.416Z,8.84
2024-01-05T04:05:29.265Z,8.83
2024-01-05T04:06:29.289Z,8.83
2024-01-05T04:07:29.205Z,8.83
2024-01-05T04:08:29.193Z,8.83
2024-01-05T04:09:29.213Z,8.83
2024-01-05T04:10:29.171Z,8.84
2024-01-05T04:11:29.182Z,8.83
2024-01-05T04:12:29.258Z,8.83
2024-01-05T04:13:29.125Z,8.83
2024-01-05T04:14:29.162Z,8.84
2024-01-05T04:15:29.133Z,8.83
2024-01-05T04:16:29.099Z,8.83
2024-01-05T04:17:29.114Z,8.84
2024-01-05T04:18:29.239Z,8.83
2024-01-05T04:19:29.091Z,8.83
2024-01-05T04:20:29.036Z,8.83
2024-01-05T04:21:29.052Z,8.84
2024-01-05T04:22:29.025Z,8.84
2024-01-05T04:23:28.996Z,8.83
2024-01-05T04:24:29.005Z,8.84
2024-01-05T04:25:28.988Z,8.84
2024-01-05T04:26:28.970Z,8.84
2024-01-05T04:27:28.996Z,8.83
2024-01-05T04:28:28.929Z,8.84
2024-01-05T04:29:28.917Z,8.86
2024-01-05T04:30:28.938Z,8.83
2024-01-05T04:31:28.980Z,8.84
2024-01-05T04:32:28.882Z,8.86
2024-01-05T04:33:28.911Z,8.84
2024-01-05T04:34:29.133Z,8.81
2024-01-05T04:35:28.841Z,8.84
2024-01-05T04:36:28.865Z,8.83
2024-01-05T04:37:28.819Z,8.84
2024-01-05T04:38:28.798Z,8.84
2024-01-05T04:39:28.804Z,8.83
2024-01-05T04:40:28.771Z,8.84
2024-01-05T04:41:28.754Z,8.84
2024-01-05T04:42:28.784Z,8.83
2024-01-05T04:43:28.752Z,8.84
2024-01-05T04:44:28.726Z,8.84
2024-01-05T04:45:28.847Z,8.84
2024-01-05T04:46:28.824Z,8.83
2024-01-05T04:47:28.703Z,8.83
2024-01-05T04:48:28.798Z,8.83
2024-01-05T04:49:28.786Z,8.84
2024-01-05T04:50:28.634Z,8.86
2024-01-05T04:51:28.646Z,8.84
2024-01-05T04:52:28.617Z,8.84
2024-01-05T04:53:28.596Z,8.84
2024-01-05T04:54:28.667Z,8.84
2024-01-05T04:55:28.575Z,8.83
2024-01-05T04:56:28.562Z,8.86
2024-01-05T04:57:28.609Z,8.83
2024-01-05T04:58:28.548Z,8.83
2024-01-05T04:59:28.547Z,8.83
2024-01-05T05:00:28.557Z,8.81
2024-01-05T05:01:28.546Z,8.83
2024-01-05T05:02:28.526Z,8.83
2024-01-05T05:03:28.692Z,8.83
2024-01-05T05:04:28.453Z,8.83
2024-01-05T05:05:28.481Z,8.83
2024-01-05T05:06:28.520Z,8.83
2024-01-05T05:07:28.413Z,8.83
2024-01-05T05:08:28.434Z,8.83
2024-01-05T05:09:28.413Z,8.83
2024-01-05T05:10:28.374Z,8.83
2024-01-05T05:11:28.360Z,8.84
2024-01-05T05:12:28.423Z,8.83
2024-01-05T05:13:28.331Z,8.83
2024-01-05T05:14:28.326Z,8.83
2024-01-05T05:15:28.398Z,8.83
2024-01-05T05:16:28.297Z,8.83
2024-01-05T05:17:28.386Z,8.81
2024-01-05T05:18:28.438Z,8.83
2024-01-05T05:19:28.480Z,8.81
2024-01-05T05:20:28.248Z,8.81
2024-01-05T05:21:28.251Z,8.83
2024-01-05T05:22:28.253Z,8.84
2024-01-05T05:23:28.202Z,8.83
2024-01-05T05:24:28.247Z,8.83
2024-01-05T05:25:28.214Z,8.84
2024-01-05T05:26:28.168Z,8.83
2024-01-05T05:27:28.256Z,8.84
2024-01-05T05:28:28.149Z,8.83
2024-01-05T05:29:28.124Z,8.83
2024-01-05T05:30:28.167Z,8.83
2024-01-05T05:31:28.212Z,8.83
2024-01-05T05:32:28.090Z,8.83
2024-01-05T05:33:28.268Z,8.81
2024-01-05T05:34:28.132Z,8.84
2024-01-05T05:35:28.050Z,8.83
2024-01-05T05:36:28.067Z,8.81
2024-01-05T05:37:28.020Z,8.81
2024-01-05T05:38:28.005Z,8.83
2024-01-05T05:39:28.015Z,8.84
2024-01-05T05:40:27.984Z,8.83
2024-01-05T05:41:27.960Z,8.83
2024-01-05T05:42:28.049Z,8.83
2024-01-05T05:43:27.939Z,8.84
2024-01-05T05:44:27.928Z,8.83
2024-01-05T05:45:27.969Z,8.84
2024-01-05T05:46:28.032Z,8.84
2024-01-05T05:47:27.938Z,8.83
2024-01-05T05:48:28.060Z,8.83
2024-01-05T05:49:28.059Z,8.83
2024-01-05T05:50:27.904Z,8.84
2024-01-05T05:51:27.844Z,8.83
2024-01-05T05:52:30.506Z,8.83
2024-01-05T05:53:27.819Z,8.83
2024-01-05T05:54:27.872Z,8.83
2024-01-05T05:55:27.837Z,8.84
2024-01-05T05:56:27.811Z,8.81
2024-01-05T05:57:27.826Z,8.84
2024-01-05T05:58:27.778Z,8.83
2024-01-05T05:59:27.780Z,8.83
2024-01-05T06:00:27.734Z,8.84
2024-01-05T06:01:27.821Z,8.81
2024-01-05T06:02:27.784Z,8.83
2024-01-05T06:03:27.864Z,8.84
2024-01-05T06:04:27.712Z,8.83
2024-01-05T06:05:27.704Z,8.83
2024-01-05T06:06:27.803Z,8.83
2024-01-05T06:07:27.642Z,8.84
2024-01-05T06:08:27.608Z,8.83
2024-01-05T06:09:27.660Z,8.83
2024-01-05T06:10:27.583Z,8.83
2024-01-05T06:11:27.579Z,8.84
2024-01-05T06:12:27.631Z,8.84
2024-01-05T06:13:27.549Z,8.84
2024-01-05T06:14:27.543Z,8.83
2024-01-05T06:15:27.585Z,8.86
2024-01-05T06:16:27.507Z,8.84
2024-01-05T06:17:27.621Z,8.83
2024-01-05T06:18:27.628Z,8.83
2024-01-05T06:19:27.579Z,8.83
2024-01-05T06:20:27.462Z,8.83
2024-01-05T06:21:27.522Z,8.83
2024-01-05T06:22:27.448Z,8.83
2024-01-05T06:23:27.417Z,8.84
2024-01-05T06:24:27.435Z,8.83
2024-01-05T06:25:27.389Z,8.83
2024-01-05T06:26:27.385Z,8.83
2024-01-05T06:27:33.125Z,8.86
2024-01-05T06:28:28.576Z,8.86
2024-01-05T06:29:27.336Z,8.84
2024-01-05T06:30:27.395Z,8.84
2024-01-05T06:31:27.335Z,8.84
2024-01-05T06:32:27.306Z,8.83
2024-01-05T06:33:27.499Z,8.86
2024-01-05T06:34:27.382Z,8.84
2024-01-05T06:35:27.307Z,8.84
2024-01-05T06:36:27.289Z,8.83
2024-01-05T06:37:27.224Z,8.83
2024-01-05T06:38:27.217Z,8.84
2024-01-05T06:39:27.231Z,8.84
2024-01-05T06:40:27.183Z,8.83
2024-01-05T06:41:27.176Z,8.84
2024-01-05T06:42:27.201Z,8.83
2024-01-05T06:43:27.146Z,8.84
2024-01-05T06:44:27.137Z,8.84
2024-01-05T06:45:27.135Z,8.83
2024-01-05T06:46:27.104Z,8.84
2024-01-05T06:47:27.141Z,8.84
2024-01-05T06:48:27.243Z,8.84
2024-01-05T06:49:27.194Z,8.83
2024-01-05T06:50:27.211Z,8.83
2024-01-05T06:51:27.103Z,8.86
2024-01-05T06:52:27.029Z,8.84
2024-01-05T06:53:27.012Z,8.84
2024-01-05T06:54:27.017Z,8.83
2024-01-05T06:55:26.986Z,8.84
2024-01-05T06:56:26.971Z,8.83
2024-01-05T06:57:26.986Z,8.86
2024-01-05T06:58:26.946Z,8.84
2024-01-05T06:59:26.935Z,8.84
2024-01-05T07:00:26.961Z,8.84
2024-01-05T07:01:26.924Z,8.86
2024-01-05T07:02:26.907Z,8.84
2024-01-05T07:03:26.921Z,8.84
2024-01-05T07:04:26.866Z,8.86
2024-01-05T07:05:26.912Z,8.83
2024-01-05T07:06:26.884Z,8.84
2024-01-05T07:07:26.857Z,8.86
2024-01-05T07:08:26.824Z,8.86
2024-01-05T07:09:26.905Z,8.84
2024-01-05T07:10:26.802Z,8.84
2024-01-05T07:11:26.781Z,8.86
2024-01-05T07:12:26.777Z,8.86
2024-01-05T07:13:26.753Z,8.86
2024-01-05T07:14:26.740Z,8.84
2024-01-05T07:15:26.797Z,8.84
2024-01-05T07:16:26.711Z,8.86
2024-01-05T07:17:26.832Z,8.84
2024-01-05T07:18:26.909Z,8.86
2024-01-05T07:19:26.861Z,8.86
2024-01-05T07:20:26.666Z,8.84
2024-01-05T07:21:26.699Z,8.86
2024-01-05T07:22:26.631Z,8.84
2024-01-05T07:23:26.650Z,8.86
2024-01-05T07:24:26.616Z,8.87
2024-01-05T07:25:26.604Z,8.86
2024-01-05T07:26:26.598Z,8.86
2024-01-05T07:27:26.575Z,8.84
2024-01-05T07:28:26.552Z,8.84
2024-01-05T07:29:26.545Z,8.86
2024-01-05T07:30:26.619Z,8.86
2024-01-05T07:31:26.685Z,8.86
2024-01-05T07:32:26.511Z,8.87
2024-01-05T07:33:26.602Z,8.86
2024-01-05T07:34:26.656Z,8.84
2024-01-05T07:35:26.491Z,8.86
2024-01-05T07:36:26.477Z,8.87
2024-01-05T07:37:26.440Z,8.87
2024-01-05T07:38:26.423Z,8.86
2024-01-05T07:39:26.447Z,8.86
2024-01-05T07:40:26.400Z,8.86
2024-01-05T07:41:26.384Z,8.86
2024-01-05T07:42:26.380Z,8.84
2024-01-05T07:43:26.355Z,8.86
2024-01-05T07:44:26.340Z,8.86
2024-01-05T07:45:26.389Z,8.87
2024-01-05T07:46:26.316Z,8.86
2024-01-05T07:47:26.305Z,8.87
2024-01-05T07:48:26.571Z,8.86
2024-01-05T07:49:26.324Z,8.87
2024-01-05T07:50:26.272Z,8.87
2024-01-05T07:51:26.339Z,8.84
2024-01-05T07:52:26.238Z,8.86
2024-01-05T07:53:26.224Z,8.87
2024-01-05T07:54:26.231Z,8.86
2024-01-05T07:55:26.237Z,8.87
2024-01-05T07:56:26.190Z,8.86
2024-01-05T07:57:26.211Z,8.87
2024-01-05T07:58:26.157Z,8.87
2024-01-05T07:59:26.146Z,8.86
2024-01-05T08:00:26.229Z,8.86
2024-01-05T08:01:26.185Z,8.86
2024-01-05T08:02:26.108Z,8.87
2024-01-05T08:03:26.275Z,8.84
2024-01-05T08:04:26.301Z,8.87
2024-01-05T08:05:26.096Z,8.86
2024-01-05T08:06:26.125Z,8.84
2024-01-05T08:07:26.038Z,8.86
2024-01-05T08:08:26.035Z,8.87
2024-01-05T08:09:26.066Z,8.84
2024-01-05T08:10:26.054Z,8.86
2024-01-05T08:11:26.016Z,8.86
2024-01-05T08:12:26.043Z,8.87
2024-01-05T08:13:25.961Z,8.84
2024-01-05T08:14:25.953Z,8.87
2024-01-05T08:15:25.979Z,8.87
2024-01-05T08:16:25.919Z,8.87
2024-01-05T08:17:25.946Z,8.86
2024-01-05T08:18:25.992Z,8.87
2024-01-05T08:19:25.962Z,8.86
2024-01-05T08:20:25.883Z,8.86
2024-01-05T08:21:25.997Z,8.87
2024-01-05T08:22:25.840Z,8.87
2024-01-05T08:23:25.827Z,8.86
2024-01-05T08:24:25.926Z,8.86
2024-01-05T08:25:25.862Z,8.87
2024-01-05T08:26:25.809Z,8.86
2024-01-05T08:27:25.896Z,8.87
2024-01-05T08:28:25.789Z,8.87
2024-01-05T08:29:25.749Z,8.88
2024-01-05T08:30:25.808Z,8.87
2024-01-05T08:31:25.918Z,8.87
2024-01-05T08:32:25.750Z,8.86
2024-01-05T08:33:25.912Z,8.88
2024-01-05T08:34:25.860Z,8.87
2024-01-05T08:35:25.667Z,8.87
2024-01-05T08:36:25.709Z,8.88
2024-01-05T08:37:25.645Z,8.88
2024-01-05T08:38:25.627Z,8.87
2024-01-05T08:39:25.642Z,8.87
2024-01-05T08:40:25.598Z,8.87
2024-01-05T08:41:25.595Z,8.88
2024-01-05T08:42:25.590Z,8.88
2024-01-05T08:43:25.619Z,8.87
2024-01-05T08:44:25.554Z,8.87
2024-01-05T08:45:25.625Z,8.88
2024-01-05T08:46:25.522Z,8.88
2024-01-05T08:47:25.538Z,8.87
2024-01-05T08:48:25.555Z,8.87
2024-01-05T08:49:25.550Z,8.87
2024-01-05T08:50:25.484Z,8.88
2024-01-05T08:51:25.482Z,8.88
2024-01-05T08:52:25.444Z,8.88
2024-01-05T08:53:25.444Z,8.87
2024-01-05T08:54:31.451Z,8.87
2024-01-05T08:55:25.410Z,8.87
2024-01-05T08:56:25.401Z,8.88
2024-01-05T08:57:25.434Z,8.88
2024-01-05T08:58:25.379Z,8.88
2024-01-05T08:59:25.441Z,8.86
2024-01-05T09:00:25.470Z,8.88
2024-01-05T09:01:25.353Z,8.88
2024-01-05T09:02:25.315Z,8.90
2024-01-05T09:03:25.406Z,8.88
2024-01-05T09:04:25.288Z,8.88
2024-01-05T09:05:25.357Z,8.88
2024-01-05T09:06:25.326Z,8.87
2024-01-05T09:07:25.253Z,8.88
2024-01-05T09:08:25.245Z,8.88
2024-01-05T09:09:25.274Z,8.88
2024-01-05T09:10:25.213Z,8.90
2024-01-05T09:11:25.202Z,8.90
2024-01-05T09:12:25.266Z,8.90
2024-01-05T09:13:25.172Z,8.87
2024-01-05T09:14:25.156Z,8.91
2024-01-05T09:15:25.266Z,8.90
2024-01-05T09:16:25.140Z,8.91
2024-01-05T09:17:25.134Z,8.91
2024-01-05T09:18:25.220Z,8.91
2024-01-05T09:19:26.152Z,8.90
2024-01-05T09:20:25.089Z,8.91
2024-01-05T09:21:25.093Z,8.91
2024-01-05T09:22:25.050Z,8.90
2024-01-05T09:23:25.044Z,8.90
2024-01-05T09:24:25.055Z,8.88
2024-01-05T09:25:25.033Z,8.90
2024-01-05T09:26:25.025Z,8.90
2024-01-05T09:27:25.054Z,8.90
2024-01-05T09:28:25.000Z,8.90
2024-01-05T09:29:24.980Z,8.90
2024-01-05T09:30:25.051Z,8.90
2024-01-05T09:31:25.039Z,8.90
2024-01-05T09:32:24.931Z,8.91
2024-01-05T09:33:25.009Z,8.91
2024-01-05T09:34:25.122Z,8.91
2024-01-05T09:35:24.881Z,8.91
2024-01-05T09:36:24.898Z,8.91
2024-01-05T09:37:24.858Z,8.93
2024-01-05T09:38:24.839Z,8.91
2024-01-05T09:39:24.879Z,8.91
2024-01-05T09:40:24.821Z,8.91
2024-01-05T09:41:24.819Z,8.94
2024-01-05T09:42:24.806Z,8.93
2024-01-05T09:43:24.775Z,8.93
2024-01-05T09:44:24.773Z,8.91
2024-01-05T09:45:24.763Z,8.93
2024-01-05T09:46:24.733Z,8.93
2024-01-05T09:47:24.749Z,8.94
2024-01-05T09:48:30.578Z,8.93
2024-01-05T09:49:25.887Z,8.94
2024-01-05T09:50:24.792Z,8.94
2024-01-05T09:51:24.696Z,8.94
2024-01-05T09:52:24.651Z,8.94
2024-01-05T09:53:24.646Z,8.94
2024-01-05T09:54:24.682Z,8.93
2024-01-05T09:55:24.621Z,8.94
2024-01-05T09:56:24.600Z,8.94
2024-01-05T09:57:24.639Z,8.94
2024-01-05T09:58:24.582Z,8.94
2024-01-05T09:59:24.569Z,8.93
2024-01-05T10:00:24.659Z,8.96
2024-01-05T10:01:24.547Z,8.94
2024-01-05T10:02:24.521Z,8.96
2024-01-05T10:03:24.662Z,8.94
2024-01-05T10:04:24.565Z,8.93
2024-01-05T10:05:24.499Z,8.94
2024-01-05T10:06:24.520Z,8.96
2024-01-05T10:07:24.461Z,8.96
2024-01-05T10:08:24.460Z,8.96
2024-01-05T10:09:24.475Z,8.94
2024-01-05T10:10:24.436Z,8.96
2024-01-05T10:11:24.410Z,8.94
2024-01-05T10:12:24.435Z,8.96
2024-01-05T10:13:24.383Z,8.96
2024-01-05T10:14:24.367Z,8.93
2024-01-05T10:15:24.425Z,8.94
2024-01-05T10:16:24.344Z,8.96
2024-01-05T10:17:24.333Z,8.96
2024-01-05T10:18:25.993Z,8.94
2024-01-05T10:19:24.434Z,8.96
2024-01-05T10:20:24.290Z,8.97
2024-01-05T10:21:24.295Z,8.99
2024-01-05T10:22:24.265Z,8.96
2024-01-05T10:23:24.269Z,8.97
2024-01-05T10:24:24.954Z,8.97
2024-01-05T10:25:24.227Z,8.99
2024-01-05T10:26:24.210Z,8.99
2024-01-05T10:27:24.211Z,8.99
2024-01-05T10:28:24.187Z,8.99
2024-01-05T10:29:24.171Z,8.99
2024-01-05T10:30:24.304Z,8.99
2024-01-05T10:31:24.195Z,9.01
2024-01-05T10:32:24.135Z,9.01
2024-01-05T10:33:24.200Z,9.01
2024-01-05T10:34:24.139Z,9.01
2024-01-05T10:35:24.118Z,9.01
2024-01-05T10:36:24.159Z,9.01
2024-01-05T10:37:24.067Z,9.01
2024-01-05T10:38:24.051Z,8.99
2024-01-05T10:39:24.105Z,9.02
2024-01-05T10:40:24.023Z,9.02
2024-01-05T10:41:24.010Z,9.01
2024-01-05T10:42:24.207Z,9.01
2024-01-05T10:43:23.982Z,9.02
2024-01-05T10:44:23.970Z,9.02
2024-01-05T10:45:23.987Z,9.01
2024-01-05T10:46:23.950Z,9.01
2024-01-05T10:47:23.931Z,9.02
2024-01-05T10:48:24.036Z,9.02
2024-01-05T10:49:23.984Z,9.02
2024-01-05T10:50:23.917Z,9.04
2024-01-05T10:51:23.964Z,9.04
2024-01-05T10:52:23.866Z,9.04
2024-01-05T10:53:23.860Z,9.04
2024-01-05T10:54:23.924Z,9.04
2024-01-05T10:55:23.827Z,9.04
2024-01-05T10:56:23.818Z,9.02
2024-01-05T10:57:23.851Z,9.04
2024-01-05T10:58:23.799Z,9.04
2024-01-05T10:59:23.775Z,9.04
2024-01-05T11:00:23.818Z,9.05
2024-01-05T11:01:23.808Z,9.04
2024-01-05T11:02:23.899Z,9.05
2024-01-05T11:03:23.744Z,9.04
2024-01-05T11:04:23.714Z,9.05
2024-01-05T11:05:23.754Z,9.04
2024-01-05T11:06:23.801Z,9.05
2024-01-05T11:07:23.844Z,9.06
2024-01-05T11:08:23.657Z,9.04
2024-01-05T11:09:23.723Z,9.05
2024-01-05T11:10:23.675Z,9.06
2024-01-05T11:11:23.620Z,9.05
2024-01-05T11:12:23.684Z,9.08
2024-01-05T11:13:23.592Z,9.08
2024-01-05T11:14:23.670Z,9.09
2024-01-05T11:15:23.703Z,9.08
2024-01-05T11:16:23.553Z,9.08
2024-01-05T11:17:23.563Z,9.09
2024-01-05T11:18:23.628Z,9.08
2024-01-05T11:19:23.611Z,9.08
2024-01-05T11:20:23.500Z,9.08
2024-01-05T11:21:23.534Z,9.08
2024-01-05T11:22:23.476Z,9.08
2024-01-05T11:23:23.494Z,9.06
2024-01-05T11:24:23.535Z,9.08
2024-01-05T11:25:23.493Z,9.08
2024-01-05T11:26:23.431Z,9.08
2024-01-05T11:27:23.443Z,9.06
2024-01-05T11:28:23.400Z,9.06
2024-01-05T11:29:23.400Z,9.06
2024-01-05T11:30:24.236Z,9.08
2024-01-05T11:31:23.456Z,9.06
2024-01-05T11:32:23.394Z,9.06
2024-01-05T11:33:30.003Z,9.08
2024-01-05T11:34:24.561Z,9.08
2024-01-05T11:35:23.349Z,9.08
2024-01-05T11:36:23.326Z,9.08
2024-01-05T11:37:23.279Z,9.08
2024-01-05T11:38:23.263Z,9.06
2024-01-05T11:39:23.329Z,9.06
2024-01-05T11:40:23.242Z,9.09
2024-01-05T11:41:23.234Z,9.09
2024-01-05T11:42:23.231Z,9.09
2024-01-05T11:43:23.198Z,9.09
2024-01-05T11:44:23.187Z,9.08
2024-01-05T11:45:23.258Z,9.09
2024-01-05T11:46:24.880Z,9.09
2024-01-05T11:47:23.172Z,9.09
2024-01-05T11:48:23.253Z,9.09
2024-01-05T11:49:23.190Z,9.09
2024-01-05T11:50:23.127Z,9.09
2024-01-05T11:51:23.162Z,9.09
2024-01-05T11:52:24.370Z,9.08
2024-01-05T11:53:23.062Z,9.08
2024-01-05T11:54:23.096Z,9.09
2024-01-05T11:55:23.057Z,9.06
2024-01-05T11:56:23.478Z,9.08
2024-01-05T11:57:23.047Z,9.06
2024-01-05T11:58:22.996Z,9.06
2024-01-05T11:59:22.983Z,9.08
2024-01-05T12:00:22.990Z,9.06
2024-01-05T12:01:23.025Z,9.05
2024-01-05T12:02:22.948Z,9.08
2024-01-05T12:03:22.960Z,9.06
2024-01-05T12:04:23.105Z,9.08
2024-01-05T12:05:22.974Z,9.06
2024-01-05T12:06:23.030Z,9.06
2024-01-05T12:07:22.880Z,9.06
2024-01-05T12:08:22.893Z,9.05
2024-01-05T12:09:22.898Z,9.06
2024-01-05T12:10:22.850Z,9.06
2024-01-05T12:11:22.859Z,9.04
2024-01-05T12:12:22.855Z,9.06
2024-01-05T12:13:22.814Z,9.05
2024-01-05T12:14:22.805Z,9.05
2024-01-05T12:15:22.877Z,9.05
2024-01-05T12:16:22.823Z,9.05
2024-01-05T12:17:22.837Z,9.06
2024-01-05T12:18:28.226Z,9.05
2024-01-05T12:19:24.044Z,9.05
2024-01-05T12:20:22.814Z,9.05
2024-01-05T12:21:22.861Z,9.05
2024-01-05T12:22:22.691Z,9.06
2024-01-05T12:23:22.673Z,9.05
2024-01-05T12:24:22.679Z,9.06
2024-01-05T12:25:22.651Z,9.05
2024-01-05T12:26:22.629Z,9.05
2024-01-05T12:27:22.706Z,9.05
2024-01-05T12:28:22.620Z,9.05
2024-01-05T12:29:22.593Z,9.06
2024-01-05T12:30:22.696Z,9.05
2024-01-05T12:31:22.705Z,9.08
2024-01-05T12:32:22.558Z,9.06
2024-01-05T12:33:22.667Z,9.05
2024-01-05T12:34:22.641Z,9.05
2024-01-05T12:35:22.510Z,9.06
2024-01-05T12:36:22.532Z,9.06
2024-01-05T12:37:22.483Z,9.06
2024-01-05T12:38:22.473Z,9.05
2024-01-05T12:39:22.483Z,9.08
2024-01-05T12:40:22.444Z,9.06
2024-01-05T12:41:22.432Z,9.08
2024-01-05T12:42:22.480Z,9.06
2024-01-05T12:43:22.425Z,9.06
2024-01-05T12:44:22.397Z,9.08
2024-01-05T12:45:22.385Z,9.06
2024-01-05T12:46:22.370Z,9.06
2024-01-05T12:47:22.348Z,9.08
2024-01-05T12:48:22.479Z,9.06
2024-01-05T12:49:22.477Z,9.06
2024-01-05T12:50:22.313Z,9.05
2024-01-05T12:51:22.316Z,9.06
2024-01-05T12:52:22.286Z,9.06
2024-01-05T12:53:22.280Z,9.08
2024-01-05T12:54:22.757Z,9.06
2024-01-05T12:55:22.249Z,9.08
2024-01-05T12:56:22.235Z,9.08
2024-01-05T12:57:22.267Z,9.08
2024-01-05T12:58:22.204Z,9.09
2024-01-05T12:59:22.236Z,9.08
2024-01-05T13:00:22.191Z,9.09
2024-01-05T13:01:22.217Z,9.08
2024-01-05T13:02:22.157Z,9.09
2024-01-05T13:03:22.174Z,9.08
2024-01-05T13:04:22.202Z,9.08
2024-01-05T13:05:22.112Z,9.08
2024-01-05T13:06:22.342Z,9.06
2024-01-05T13:07:22.089Z,9.06
2024-01-05T13:08:22.078Z,9.08
2024-01-05T13:09:22.077Z,9.06
2024-01-05T13:10:22.052Z,9.06
2024-01-05T13:11:22.519Z,9.08
2024-01-05T13:12:22.067Z,9.06
2024-01-05T13:13:22.015Z,9.08
2024-01-05T13:14:21.997Z,9.08
2024-01-05T13:15:22.064Z,9.06
2024-01-05T13:16:22.114Z,9.08
2024-01-05T13:17:21.957Z,9.08
2024-01-05T13:18:22.075Z,9.09
2024-01-05T13:19:22.020Z,9.08
2024-01-05T13:20:21.937Z,9.08
2024-01-05T13:21:21.958Z,9.08
2024-01-05T13:22:21.894Z,9.06
2024-01-05T13:23:21.885Z,9.08
2024-01-05T13:24:21.902Z,9.08